sensor_id;sensor_type;location;lat;lon;timestamp;P1;durP1;ratioP1;P2;durP2;ratioP2
2538;SDS011;1280;49.760;9.664;2023-03-11T00:00:09;6.25;;;1.90;;
2538;SDS011;1280;49.760;9.664;2023-03-11T00:02:44;4.05;;;2.20;;
2538;SDS011;1280;49.760;9.664;2023-03-11T00:05:19;4.65;;;2.10;;
2538;SDS011;1280;49.760;9.664;2023-03-11T00:07:51;4.45;;;1.63;;
2538;SDS011;1280;49.760;9.664;2023-03-11T00:10:30;3.70;;;1.83;;
2538;SDS011;1280;49.760;9.664;2023-03-11T00:13:08;4.10;;;1.90;;
2538;SDS011;1280;49.760;9.664;2023-03-11T00:15:40;3.45;;;1.65;;
2538;SDS011;1280;49.760;9.664;2023-03-11T00:18:08;3.85;;;1.75;;
2538;SDS011;1280;49.760;9.664;2023-03-11T00:20:42;3.30;;;1.48;;
2538;SDS011;1280;49.760;9.664;2023-03-11T00:23:14;3.63;;;1.80;;
2538;SDS011;1280;49.760;9.664;2023-03-11T00:25:53;4.78;;;1.70;;
2538;SDS011;1280;49.760;9.664;2023-03-11T00:28:24;3.88;;;1.90;;
2538;SDS011;1280;49.760;9.664;2023-03-11T00:30:59;4.80;;;2.05;;
2538;SDS011;1280;49.760;9.664;2023-03-11T00:33:34;6.45;;;2.00;;
2538;SDS011;1280;49.760;9.664;2023-03-11T00:36:26;4.07;;;1.80;;
2538;SDS011;1280;49.760;9.664;2023-03-11T00:39:08;3.85;;;1.80;;
2538;SDS011;1280;49.760;9.664;2023-03-11T00:41:38;3.83;;;1.83;;
2538;SDS011;1280;49.760;9.664;2023-03-11T00:44:10;3.70;;;1.95;;
2538;SDS011;1280;49.760;9.664;2023-03-11T00:46:40;3.95;;;1.83;;
2538;SDS011;1280;49.760;9.664;2023-03-11T00:49:16;3.70;;;1.90;;
2538;SDS011;1280;49.760;9.664;2023-03-11T00:51:50;4.00;;;2.25;;
2538;SDS011;1280;49.760;9.664;2023-03-11T00:54:26;4.20;;;2.00;;
2538;SDS011;1280;49.760;9.664;2023-03-11T00:56:58;3.78;;;2.10;;
2538;SDS011;1280;49.760;9.664;2023-03-11T00:59:32;3.70;;;1.77;;
2538;SDS011;1280;49.760;9.664;2023-03-11T01:02:02;3.95;;;2.03;;
2538;SDS011;1280;49.760;9.664;2023-03-11T01:04:41;3.78;;;2.20;;
2538;SDS011;1280;49.760;9.664;2023-03-11T01:07:17;4.00;;;1.98;;
2538;SDS011;1280;49.760;9.664;2023-03-11T01:09:56;3.97;;;2.00;;
2538;SDS011;1280;49.760;9.664;2023-03-11T01:12:34;3.65;;;2.05;;
2538;SDS011;1280;49.760;9.664;2023-03-11T01:15:08;4.57;;;1.90;;
2538;SDS011;1280;49.760;9.664;2023-03-11T01:17:49;4.38;;;2.22;;
2538;SDS011;1280;49.760;9.664;2023-03-11T01:20:33;4.45;;;2.10;;
2538;SDS011;1280;49.760;9.664;2023-03-11T01:23:12;3.72;;;2.00;;
2538;SDS011;1280;49.760;9.664;2023-03-11T01:25:44;3.50;;;1.70;;
2538;SDS011;1280;49.760;9.664;2023-03-11T01:28:18;4.40;;;2.25;;
2538;SDS011;1280;49.760;9.664;2023-03-11T01:30:57;3.83;;;2.00;;
2538;SDS011;1280;49.760;9.664;2023-03-11T01:33:37;5.15;;;2.03;;
2538;SDS011;1280;49.760;9.664;2023-03-11T01:36:10;4.20;;;2.10;;
2538;SDS011;1280;49.760;9.664;2023-03-11T01:41:42;4.35;;;2.10;;
2538;SDS011;1280;49.760;9.664;2023-03-11T01:44:15;4.47;;;2.13;;
2538;SDS011;1280;49.760;9.664;2023-03-11T01:50:08;6.13;;;1.75;;
2538;SDS011;1280;49.760;9.664;2023-03-11T01:52:40;4.50;;;2.25;;
2538;SDS011;1280;49.760;9.664;2023-03-11T01:55:17;4.85;;;2.00;;
2538;SDS011;1280;49.760;9.664;2023-03-11T01:57:53;5.80;;;1.92;;
2538;SDS011;1280;49.760;9.664;2023-03-11T02:00:26;4.28;;;2.28;;
2538;SDS011;1280;49.760;9.664;2023-03-11T02:03:07;5.07;;;1.60;;
2538;SDS011;1280;49.760;9.664;2023-03-11T02:05:48;4.97;;;2.10;;
2538;SDS011;1280;49.760;9.664;2023-03-11T02:08:23;4.43;;;1.90;;
2538;SDS011;1280;49.760;9.664;2023-03-11T02:11:09;5.35;;;1.73;;
2538;SDS011;1280;49.760;9.664;2023-03-11T02:13:45;5.05;;;1.70;;
2538;SDS011;1280;49.760;9.664;2023-03-11T02:16:16;6.72;;;2.28;;
2538;SDS011;1280;49.760;9.664;2023-03-11T02:18:53;3.70;;;1.50;;
2538;SDS011;1280;49.760;9.664;2023-03-11T02:21:28;4.40;;;1.60;;
2538;SDS011;1280;49.760;9.664;2023-03-11T02:24:04;3.92;;;1.50;;
2538;SDS011;1280;49.760;9.664;2023-03-11T02:27:00;4.03;;;1.50;;
2538;SDS011;1280;49.760;9.664;2023-03-11T02:29:34;4.60;;;1.67;;
2538;SDS011;1280;49.760;9.664;2023-03-11T02:32:05;5.28;;;1.55;;
2538;SDS011;1280;49.760;9.664;2023-03-11T02:34:41;5.30;;;1.83;;
2538;SDS011;1280;49.760;9.664;2023-03-11T02:37:15;7.50;;;1.50;;
2538;SDS011;1280;49.760;9.664;2023-03-11T02:39:53;5.60;;;1.90;;
2538;SDS011;1280;49.760;9.664;2023-03-11T02:42:59;4.40;;;1.48;;
2538;SDS011;1280;49.760;9.664;2023-03-11T02:45:35;4.10;;;1.60;;
2538;SDS011;1280;49.760;9.664;2023-03-11T02:48:09;5.45;;;2.42;;
2538;SDS011;1280;49.760;9.664;2023-03-11T02:50:45;4.30;;;1.60;;
2538;SDS011;1280;49.760;9.664;2023-03-11T02:53:17;5.65;;;2.10;;
2538;SDS011;1280;49.760;9.664;2023-03-11T02:55:59;3.53;;;1.77;;
2538;SDS011;1280;49.760;9.664;2023-03-11T02:58:42;3.78;;;1.65;;
2538;SDS011;1280;49.760;9.664;2023-03-11T03:01:15;3.90;;;1.40;;
2538;SDS011;1280;49.760;9.664;2023-03-11T03:03:52;3.33;;;1.60;;
2538;SDS011;1280;49.760;9.664;2023-03-11T03:06:23;7.20;;;1.95;;
2538;SDS011;1280;49.760;9.664;2023-03-11T03:08:59;4.70;;;1.67;;
2538;SDS011;1280;49.760;9.664;2023-03-11T03:11:30;4.70;;;2.13;;
2538;SDS011;1280;49.760;9.664;2023-03-11T03:14:22;5.57;;;2.15;;
2538;SDS011;1280;49.760;9.664;2023-03-11T03:17:00;4.13;;;1.80;;
2538;SDS011;1280;49.760;9.664;2023-03-11T03:19:39;5.38;;;1.90;;
2538;SDS011;1280;49.760;9.664;2023-03-11T03:22:17;5.00;;;1.95;;
2538;SDS011;1280;49.760;9.664;2023-03-11T03:24:54;4.72;;;1.75;;
2538;SDS011;1280;49.760;9.664;2023-03-11T03:27:30;5.65;;;1.90;;
2538;SDS011;1280;49.760;9.664;2023-03-11T03:30:09;3.60;;;1.70;;
2538;SDS011;1280;49.760;9.664;2023-03-11T03:32:46;8.27;;;1.95;;
2538;SDS011;1280;49.760;9.664;2023-03-11T03:35:18;5.93;;;2.08;;
2538;SDS011;1280;49.760;9.664;2023-03-11T03:38:11;4.85;;;2.25;;
2538;SDS011;1280;49.760;9.664;2023-03-11T03:40:52;7.50;;;2.63;;
2538;SDS011;1280;49.760;9.664;2023-03-11T03:43:23;4.40;;;1.75;;
2538;SDS011;1280;49.760;9.664;2023-03-11T03:49:37;3.70;;;2.05;;
2538;SDS011;1280;49.760;9.664;2023-03-11T03:52:10;4.07;;;1.92;;
2538;SDS011;1280;49.760;9.664;2023-03-11T03:54:43;5.35;;;2.00;;
2538;SDS011;1280;49.760;9.664;2023-03-11T04:00:10;5.95;;;1.95;;
2538;SDS011;1280;49.760;9.664;2023-03-11T04:02:56;4.88;;;2.00;;
2538;SDS011;1280;49.760;9.664;2023-03-11T04:05:40;5.35;;;2.17;;
2538;SDS011;1280;49.760;9.664;2023-03-11T04:08:11;4.75;;;2.22;;
2538;SDS011;1280;49.760;9.664;2023-03-11T04:10:42;4.88;;;2.35;;
2538;SDS011;1280;49.760;9.664;2023-03-11T04:13:15;7.22;;;2.70;;
2538;SDS011;1280;49.760;9.664;2023-03-11T04:15:48;4.05;;;2.10;;
2538;SDS011;1280;49.760;9.664;2023-03-11T04:18:23;10.02;;;3.08;;
2538;SDS011;1280;49.760;9.664;2023-03-11T04:21:13;5.68;;;2.13;;
2538;SDS011;1280;49.760;9.664;2023-03-11T04:23:57;6.20;;;2.42;;
2538;SDS011;1280;49.760;9.664;2023-03-11T04:26:35;6.28;;;2.50;;
2538;SDS011;1280;49.760;9.664;2023-03-11T04:29:15;6.72;;;2.58;;
2538;SDS011;1280;49.760;9.664;2023-03-11T04:32:01;12.00;;;2.65;;
2538;SDS011;1280;49.760;9.664;2023-03-11T04:34:30;5.10;;;2.50;;
2538;SDS011;1280;49.760;9.664;2023-03-11T04:37:06;6.95;;;2.10;;
2538;SDS011;1280;49.760;9.664;2023-03-11T04:39:38;7.72;;;2.35;;
2538;SDS011;1280;49.760;9.664;2023-03-11T04:42:08;6.05;;;2.22;;
2538;SDS011;1280;49.760;9.664;2023-03-11T04:44:44;5.85;;;2.28;;
2538;SDS011;1280;49.760;9.664;2023-03-11T04:47:26;8.20;;;2.60;;
2538;SDS011;1280;49.760;9.664;2023-03-11T04:50:07;7.93;;;2.10;;
2538;SDS011;1280;49.760;9.664;2023-03-11T04:52:46;6.20;;;2.22;;
2538;SDS011;1280;49.760;9.664;2023-03-11T04:55:16;4.47;;;2.22;;
2538;SDS011;1280;49.760;9.664;2023-03-11T04:57:47;7.78;;;2.53;;
2538;SDS011;1280;49.760;9.664;2023-03-11T05:00:29;5.65;;;1.92;;
2538;SDS011;1280;49.760;9.664;2023-03-11T05:03:13;4.43;;;2.10;;
2538;SDS011;1280;49.760;9.664;2023-03-11T05:05:45;6.38;;;2.25;;
2538;SDS011;1280;49.760;9.664;2023-03-11T05:08:21;6.35;;;2.42;;
2538;SDS011;1280;49.760;9.664;2023-03-11T05:10:56;5.60;;;2.22;;
2538;SDS011;1280;49.760;9.664;2023-03-11T05:13:29;6.97;;;2.60;;
2538;SDS011;1280;49.760;9.664;2023-03-11T05:16:10;8.55;;;2.67;;
2538;SDS011;1280;49.760;9.664;2023-03-11T05:18:48;7.25;;;1.95;;
2538;SDS011;1280;49.760;9.664;2023-03-11T05:21:24;12.45;;;2.60;;
2538;SDS011;1280;49.760;9.664;2023-03-11T05:24:03;6.82;;;2.05;;
2538;SDS011;1280;49.760;9.664;2023-03-11T05:26:34;6.20;;;2.28;;
2538;SDS011;1280;49.760;9.664;2023-03-11T05:29:15;6.80;;;2.40;;
2538;SDS011;1280;49.760;9.664;2023-03-11T05:31:55;9.00;;;2.97;;
2538;SDS011;1280;49.760;9.664;2023-03-11T05:34:35;6.47;;;2.15;;
2538;SDS011;1280;49.760;9.664;2023-03-11T05:37:14;7.65;;;2.60;;
2538;SDS011;1280;49.760;9.664;2023-03-11T05:40:03;6.35;;;2.85;;
2538;SDS011;1280;49.760;9.664;2023-03-11T05:42:43;5.82;;;2.80;;
2538;SDS011;1280;49.760;9.664;2023-03-11T05:45:18;6.45;;;2.70;;
2538;SDS011;1280;49.760;9.664;2023-03-11T05:47:50;5.72;;;2.30;;
2538;SDS011;1280;49.760;9.664;2023-03-11T05:50:24;9.48;;;2.70;;
2538;SDS011;1280;49.760;9.664;2023-03-11T05:53:03;8.60;;;2.55;;
2538;SDS011;1280;49.760;9.664;2023-03-11T05:55:38;8.05;;;2.70;;
2538;SDS011;1280;49.760;9.664;2023-03-11T05:58:13;4.22;;;2.15;;
2538;SDS011;1280;49.760;9.664;2023-03-11T06:00:43;10.05;;;2.92;;
2538;SDS011;1280;49.760;9.664;2023-03-11T06:03:22;7.30;;;2.38;;
2538;SDS011;1280;49.760;9.664;2023-03-11T06:05:57;8.35;;;3.08;;
2538;SDS011;1280;49.760;9.664;2023-03-11T06:08:30;7.65;;;2.95;;
2538;SDS011;1280;49.760;9.664;2023-03-11T06:11:09;5.25;;;2.70;;
2538;SDS011;1280;49.760;9.664;2023-03-11T06:13:38;5.25;;;2.95;;
2538;SDS011;1280;49.760;9.664;2023-03-11T06:16:13;6.85;;;2.92;;
2538;SDS011;1280;49.760;9.664;2023-03-11T06:18:52;7.72;;;2.80;;
2538;SDS011;1280;49.760;9.664;2023-03-11T06:21:30;4.72;;;2.60;;
2538;SDS011;1280;49.760;9.664;2023-03-11T06:24:02;7.10;;;2.90;;
2538;SDS011;1280;49.760;9.664;2023-03-11T06:26:33;6.05;;;2.78;;
2538;SDS011;1280;49.760;9.664;2023-03-11T06:29:13;7.05;;;3.00;;
2538;SDS011;1280;49.760;9.664;2023-03-11T06:31:53;6.43;;;3.30;;
2538;SDS011;1280;49.760;9.664;2023-03-11T06:34:29;8.13;;;2.95;;
2538;SDS011;1280;49.760;9.664;2023-03-11T06:37:06;10.63;;;3.45;;
2538;SDS011;1280;49.760;9.664;2023-03-11T06:39:39;10.10;;;2.78;;
2538;SDS011;1280;49.760;9.664;2023-03-11T06:42:29;5.25;;;2.90;;
2538;SDS011;1280;49.760;9.664;2023-03-11T06:44:58;5.78;;;2.80;;
2538;SDS011;1280;49.760;9.664;2023-03-11T06:47:33;5.70;;;2.78;;
2538;SDS011;1280;49.760;9.664;2023-03-11T06:50:05;7.82;;;3.40;;
2538;SDS011;1280;49.760;9.664;2023-03-11T06:52:38;7.80;;;3.10;;
2538;SDS011;1280;49.760;9.664;2023-03-11T06:55:16;8.35;;;3.17;;
2538;SDS011;1280;49.760;9.664;2023-03-11T06:57:54;10.77;;;3.53;;
2538;SDS011;1280;49.760;9.664;2023-03-11T07:00:26;9.00;;;3.25;;
2538;SDS011;1280;49.760;9.664;2023-03-11T07:03:01;7.13;;;3.15;;
2538;SDS011;1280;49.760;9.664;2023-03-11T07:05:51;8.65;;;3.67;;
2538;SDS011;1280;49.760;9.664;2023-03-11T07:08:22;10.07;;;4.32;;
2538;SDS011;1280;49.760;9.664;2023-03-11T07:11:00;6.45;;;3.38;;
2538;SDS011;1280;49.760;9.664;2023-03-11T07:13:43;11.35;;;3.40;;
2538;SDS011;1280;49.760;9.664;2023-03-11T07:16:15;5.80;;;2.90;;
2538;SDS011;1280;49.760;9.664;2023-03-11T07:18:59;6.30;;;3.42;;
2538;SDS011;1280;49.760;9.664;2023-03-11T07:21:37;8.68;;;3.88;;
2538;SDS011;1280;49.760;9.664;2023-03-11T07:24:11;10.13;;;3.42;;
2538;SDS011;1280;49.760;9.664;2023-03-11T07:26:50;8.80;;;4.00;;
2538;SDS011;1280;49.760;9.664;2023-03-11T07:29:23;10.95;;;3.60;;
2538;SDS011;1280;49.760;9.664;2023-03-11T07:31:59;6.03;;;3.05;;
2538;SDS011;1280;49.760;9.664;2023-03-11T07:34:29;7.50;;;3.72;;
2538;SDS011;1280;49.760;9.664;2023-03-11T07:37:03;8.13;;;3.55;;
2538;SDS011;1280;49.760;9.664;2023-03-11T07:39:38;6.00;;;2.80;;
2538;SDS011;1280;49.760;9.664;2023-03-11T07:42:09;6.80;;;3.05;;
2538;SDS011;1280;49.760;9.664;2023-03-11T07:44:42;13.02;;;3.63;;
2538;SDS011;1280;49.760;9.664;2023-03-11T07:47:13;8.90;;;3.30;;
2538;SDS011;1280;49.760;9.664;2023-03-11T07:49:45;6.70;;;3.05;;
2538;SDS011;1280;49.760;9.664;2023-03-11T07:52:24;7.20;;;3.75;;
2538;SDS011;1280;49.760;9.664;2023-03-11T07:54:58;14.35;;;3.95;;
2538;SDS011;1280;49.760;9.664;2023-03-11T07:57:31;5.95;;;3.00;;
2538;SDS011;1280;49.760;9.664;2023-03-11T08:00:02;6.85;;;3.45;;
2538;SDS011;1280;49.760;9.664;2023-03-11T08:02:38;7.22;;;3.03;;
2538;SDS011;1280;49.760;9.664;2023-03-11T08:05:20;4.63;;;2.63;;
2538;SDS011;1280;49.760;9.664;2023-03-11T08:07:53;6.68;;;3.22;;
2538;SDS011;1280;49.760;9.664;2023-03-11T08:10:26;4.40;;;2.63;;
2538;SDS011;1280;49.760;9.664;2023-03-11T08:13:08;6.00;;;2.78;;
2538;SDS011;1280;49.760;9.664;2023-03-11T08:15:42;6.90;;;2.97;;
2538;SDS011;1280;49.760;9.664;2023-03-11T08:18:17;11.80;;;3.50;;
2538;SDS011;1280;49.760;9.664;2023-03-11T08:20:56;7.53;;;3.40;;
2538;SDS011;1280;49.760;9.664;2023-03-11T08:23:32;7.78;;;3.10;;
2538;SDS011;1280;49.760;9.664;2023-03-11T08:26:02;6.80;;;3.30;;
2538;SDS011;1280;49.760;9.664;2023-03-11T08:28:36;7.40;;;3.15;;
2538;SDS011;1280;49.760;9.664;2023-03-11T08:31:19;8.70;;;2.90;;
2538;SDS011;1280;49.760;9.664;2023-03-11T08:33:50;7.10;;;3.25;;
2538;SDS011;1280;49.760;9.664;2023-03-11T08:36:28;8.02;;;3.25;;
2538;SDS011;1280;49.760;9.664;2023-03-11T08:39:03;10.80;;;3.67;;
2538;SDS011;1280;49.760;9.664;2023-03-11T08:41:38;7.50;;;3.33;;
2538;SDS011;1280;49.760;9.664;2023-03-11T08:44:09;7.68;;;2.92;;
2538;SDS011;1280;49.760;9.664;2023-03-11T08:46:53;8.73;;;3.40;;
2538;SDS011;1280;49.760;9.664;2023-03-11T08:49:24;6.60;;;2.97;;
2538;SDS011;1280;49.760;9.664;2023-03-11T08:51:52;8.02;;;3.60;;
2538;SDS011;1280;49.760;9.664;2023-03-11T08:54:24;9.80;;;2.85;;
2538;SDS011;1280;49.760;9.664;2023-03-11T08:57:04;7.85;;;2.83;;
2538;SDS011;1280;49.760;9.664;2023-03-11T08:59:40;6.75;;;2.65;;
2538;SDS011;1280;49.760;9.664;2023-03-11T09:02:21;9.45;;;2.95;;
2538;SDS011;1280;49.760;9.664;2023-03-11T09:04:54;8.45;;;3.38;;
2538;SDS011;1280;49.760;9.664;2023-03-11T09:07:25;8.90;;;3.42;;
2538;SDS011;1280;49.760;9.664;2023-03-11T09:09:58;6.85;;;3.10;;
2538;SDS011;1280;49.760;9.664;2023-03-11T09:12:33;8.32;;;2.83;;
2538;SDS011;1280;49.760;9.664;2023-03-11T09:15:02;8.73;;;2.65;;
2538;SDS011;1280;49.760;9.664;2023-03-11T09:17:48;8.82;;;2.70;;
2538;SDS011;1280;49.760;9.664;2023-03-11T09:20:23;7.20;;;3.00;;
2538;SDS011;1280;49.760;9.664;2023-03-11T09:22:53;7.75;;;2.83;;
2538;SDS011;1280;49.760;9.664;2023-03-11T09:25:30;4.25;;;2.60;;
2538;SDS011;1280;49.760;9.664;2023-03-11T09:27:58;8.73;;;3.47;;
2538;SDS011;1280;49.760;9.664;2023-03-11T09:30:29;5.68;;;2.38;;
2538;SDS011;1280;49.760;9.664;2023-03-11T09:33:10;11.40;;;2.80;;
2538;SDS011;1280;49.760;9.664;2023-03-11T09:35:45;6.93;;;3.08;;
2538;SDS011;1280;49.760;9.664;2023-03-11T09:38:16;10.10;;;2.58;;
2538;SDS011;1280;49.760;9.664;2023-03-11T09:40:56;4.80;;;2.30;;
2538;SDS011;1280;49.760;9.664;2023-03-11T09:43:42;6.38;;;2.70;;
2538;SDS011;1280;49.760;9.664;2023-03-11T09:46:38;6.45;;;2.53;;
2538;SDS011;1280;49.760;9.664;2023-03-11T09:49:37;5.90;;;2.25;;
2538;SDS011;1280;49.760;9.664;2023-03-11T09:52:26;5.60;;;2.33;;
2538;SDS011;1280;49.760;9.664;2023-03-11T09:55:04;8.10;;;2.80;;
2538;SDS011;1280;49.760;9.664;2023-03-11T09:57:54;8.27;;;3.55;;
2538;SDS011;1280;49.760;9.664;2023-03-11T10:00:28;7.30;;;3.03;;
2538;SDS011;1280;49.760;9.664;2023-03-11T10:02:57;6.03;;;2.35;;
2538;SDS011;1280;49.760;9.664;2023-03-11T10:05:34;7.35;;;2.88;;
2538;SDS011;1280;49.760;9.664;2023-03-11T10:08:27;7.80;;;2.20;;
2538;SDS011;1280;49.760;9.664;2023-03-11T10:11:21;6.60;;;2.90;;
2538;SDS011;1280;49.760;9.664;2023-03-11T10:14:20;6.85;;;2.90;;
2538;SDS011;1280;49.760;9.664;2023-03-11T10:20:25;7.85;;;2.50;;
2538;SDS011;1280;49.760;9.664;2023-03-11T10:23:08;5.68;;;2.60;;
2538;SDS011;1280;49.760;9.664;2023-03-11T10:25:52;10.45;;;2.80;;
2538;SDS011;1280;49.760;9.664;2023-03-11T10:28:34;10.77;;;3.05;;
2538;SDS011;1280;49.760;9.664;2023-03-11T10:31:15;5.25;;;2.78;;
2538;SDS011;1280;49.760;9.664;2023-03-11T10:33:54;5.65;;;3.08;;
2538;SDS011;1280;49.760;9.664;2023-03-11T10:36:34;6.45;;;2.90;;
2538;SDS011;1280;49.760;9.664;2023-03-11T10:39:15;8.45;;;2.47;;
2538;SDS011;1280;49.760;9.664;2023-03-11T10:41:48;7.85;;;3.35;;
2538;SDS011;1280;49.760;9.664;2023-03-11T10:44:27;6.28;;;3.10;;
2538;SDS011;1280;49.760;9.664;2023-03-11T10:47:00;7.22;;;3.00;;
2538;SDS011;1280;49.760;9.664;2023-03-11T10:49:31;5.38;;;2.90;;
2538;SDS011;1280;49.760;9.664;2023-03-11T10:52:05;8.23;;;2.85;;
2538;SDS011;1280;49.760;9.664;2023-03-11T10:54:47;8.80;;;3.17;;
2538;SDS011;1280;49.760;9.664;2023-03-11T10:57:30;6.03;;;3.00;;
2538;SDS011;1280;49.760;9.664;2023-03-11T11:00:03;7.18;;;3.40;;
2538;SDS011;1280;49.760;9.664;2023-03-11T11:02:40;6.68;;;2.80;;
2538;SDS011;1280;49.760;9.664;2023-03-11T11:05:25;6.93;;;3.08;;
2538;SDS011;1280;49.760;9.664;2023-03-11T11:08:01;7.78;;;3.45;;
2538;SDS011;1280;49.760;9.664;2023-03-11T11:10:48;8.30;;;3.20;;
2538;SDS011;1280;49.760;9.664;2023-03-11T11:13:31;6.72;;;3.33;;
2538;SDS011;1280;49.760;9.664;2023-03-11T11:16:02;8.18;;;3.50;;
2538;SDS011;1280;49.760;9.664;2023-03-11T11:18:47;7.25;;;2.80;;
2538;SDS011;1280;49.760;9.664;2023-03-11T11:21:28;6.25;;;3.40;;
2538;SDS011;1280;49.760;9.664;2023-03-11T11:24:08;7.07;;;3.05;;
2538;SDS011;1280;49.760;9.664;2023-03-11T11:27:11;7.88;;;2.90;;
2538;SDS011;1280;49.760;9.664;2023-03-11T11:30:02;8.25;;;3.45;;
2538;SDS011;1280;49.760;9.664;2023-03-11T11:33:00;9.23;;;3.75;;
2538;SDS011;1280;49.760;9.664;2023-03-11T11:35:56;10.40;;;3.40;;
2538;SDS011;1280;49.760;9.664;2023-03-11T11:38:31;9.40;;;4.30;;
2538;SDS011;1280;49.760;9.664;2023-03-11T11:41:12;11.15;;;4.07;;
2538;SDS011;1280;49.760;9.664;2023-03-11T11:43:54;5.80;;;2.65;;
2538;SDS011;1280;49.760;9.664;2023-03-11T11:46:27;6.68;;;3.80;;
2538;SDS011;1280;49.760;9.664;2023-03-11T11:49:05;10.85;;;3.13;;
2538;SDS011;1280;49.760;9.664;2023-03-11T11:51:41;7.68;;;2.97;;
2538;SDS011;1280;49.760;9.664;2023-03-11T11:54:22;6.57;;;2.95;;
2538;SDS011;1280;49.760;9.664;2023-03-11T11:56:58;5.28;;;2.50;;
2538;SDS011;1280;49.760;9.664;2023-03-11T11:59:41;6.38;;;2.60;;
2538;SDS011;1280;49.760;9.664;2023-03-11T12:02:15;7.28;;;2.70;;
2538;SDS011;1280;49.760;9.664;2023-03-11T12:04:57;6.88;;;3.58;;
2538;SDS011;1280;49.760;9.664;2023-03-11T12:07:34;6.15;;;3.08;;
2538;SDS011;1280;49.760;9.664;2023-03-11T12:10:21;8.10;;;3.00;;
2538;SDS011;1280;49.760;9.664;2023-03-11T12:13:12;6.55;;;3.42;;
2538;SDS011;1280;49.760;9.664;2023-03-11T12:15:59;6.10;;;2.90;;
2538;SDS011;1280;49.760;9.664;2023-03-11T12:18:35;8.57;;;2.85;;
2538;SDS011;1280;49.760;9.664;2023-03-11T12:21:14;7.82;;;2.75;;
2538;SDS011;1280;49.760;9.664;2023-03-11T12:24:13;5.28;;;2.70;;
2538;SDS011;1280;49.760;9.664;2023-03-11T12:27:01;6.55;;;2.80;;
2538;SDS011;1280;49.760;9.664;2023-03-11T12:29:42;11.35;;;3.08;;
2538;SDS011;1280;49.760;9.664;2023-03-11T12:32:30;6.45;;;3.10;;
2538;SDS011;1280;49.760;9.664;2023-03-11T12:35:13;6.28;;;2.88;;
2538;SDS011;1280;49.760;9.664;2023-03-11T12:37:54;9.88;;;3.53;;
2538;SDS011;1280;49.760;9.664;2023-03-11T12:40:55;7.85;;;2.60;;
2538;SDS011;1280;49.760;9.664;2023-03-11T12:49:44;7.47;;;2.80;;
2538;SDS011;1280;49.760;9.664;2023-03-11T12:52:22;9.35;;;2.67;;
2538;SDS011;1280;49.760;9.664;2023-03-11T12:58:14;6.20;;;2.65;;
2538;SDS011;1280;49.760;9.664;2023-03-11T13:04:29;9.43;;;2.45;;
2538;SDS011;1280;49.760;9.664;2023-03-11T13:10:43;7.95;;;2.80;;
2538;SDS011;1280;49.760;9.664;2023-03-11T13:13:29;4.38;;;2.20;;
2538;SDS011;1280;49.760;9.664;2023-03-11T13:25:29;8.35;;;2.78;;
2538;SDS011;1280;49.760;9.664;2023-03-11T13:28:30;9.63;;;2.45;;
2538;SDS011;1280;49.760;9.664;2023-03-11T13:31:28;4.85;;;2.42;;
2538;SDS011;1280;49.760;9.664;2023-03-11T13:34:13;8.07;;;2.65;;
2538;SDS011;1280;49.760;9.664;2023-03-11T13:36:48;5.75;;;2.55;;
2538;SDS011;1280;49.760;9.664;2023-03-11T13:39:38;7.15;;;2.40;;
2538;SDS011;1280;49.760;9.664;2023-03-11T13:42:33;7.65;;;2.90;;
2538;SDS011;1280;49.760;9.664;2023-03-11T13:45:11;7.10;;;3.38;;
2538;SDS011;1280;49.760;9.664;2023-03-11T13:47:53;8.93;;;3.42;;
2538;SDS011;1280;49.760;9.664;2023-03-11T13:50:30;9.80;;;2.70;;
2538;SDS011;1280;49.760;9.664;2023-03-11T13:53:06;17.88;;;3.40;;
2538;SDS011;1280;49.760;9.664;2023-03-11T13:55:45;8.50;;;3.40;;
2538;SDS011;1280;49.760;9.664;2023-03-11T13:58:25;6.57;;;2.97;;
2538;SDS011;1280;49.760;9.664;2023-03-11T14:00:55;7.07;;;3.20;;
2538;SDS011;1280;49.760;9.664;2023-03-11T14:03:26;8.18;;;3.15;;
2538;SDS011;1280;49.760;9.664;2023-03-11T14:06:02;13.75;;;2.80;;
2538;SDS011;1280;49.760;9.664;2023-03-11T14:08:39;5.88;;;2.70;;
2538;SDS011;1280;49.760;9.664;2023-03-11T14:11:24;6.90;;;2.80;;
2538;SDS011;1280;49.760;9.664;2023-03-11T14:13:58;7.90;;;3.10;;
2538;SDS011;1280;49.760;9.664;2023-03-11T14:16:37;6.00;;;3.00;;
2538;SDS011;1280;49.760;9.664;2023-03-11T14:19:12;7.60;;;3.03;;
2538;SDS011;1280;49.760;9.664;2023-03-11T14:21:52;8.32;;;3.00;;
2538;SDS011;1280;49.760;9.664;2023-03-11T14:24:31;8.68;;;3.20;;
2538;SDS011;1280;49.760;9.664;2023-03-11T14:27:06;7.32;;;3.08;;
2538;SDS011;1280;49.760;9.664;2023-03-11T14:29:37;8.45;;;2.70;;
2538;SDS011;1280;49.760;9.664;2023-03-11T14:32:22;8.20;;;3.70;;
2538;SDS011;1280;49.760;9.664;2023-03-11T14:34:59;5.70;;;2.75;;
2538;SDS011;1280;49.760;9.664;2023-03-11T14:37:30;6.70;;;3.45;;
2538;SDS011;1280;49.760;9.664;2023-03-11T14:40:20;7.03;;;3.08;;
2538;SDS011;1280;49.760;9.664;2023-03-11T14:42:55;8.90;;;3.00;;
2538;SDS011;1280;49.760;9.664;2023-03-11T14:45:28;6.82;;;2.67;;
2538;SDS011;1280;49.760;9.664;2023-03-11T14:47:59;6.63;;;2.95;;
2538;SDS011;1280;49.760;9.664;2023-03-11T14:50:39;6.65;;;3.03;;
2538;SDS011;1280;49.760;9.664;2023-03-11T14:53:11;6.68;;;2.88;;
2538;SDS011;1280;49.760;9.664;2023-03-11T14:55:44;6.00;;;2.58;;
2538;SDS011;1280;49.760;9.664;2023-03-11T14:58:22;6.30;;;2.78;;
2538;SDS011;1280;49.760;9.664;2023-03-11T15:00:59;6.20;;;2.85;;
2538;SDS011;1280;49.760;9.664;2023-03-11T15:03:38;6.93;;;3.63;;
2538;SDS011;1280;49.760;9.664;2023-03-11T15:06:19;11.35;;;3.20;;
2538;SDS011;1280;49.760;9.664;2023-03-11T15:08:50;6.88;;;3.33;;
2538;SDS011;1280;49.760;9.664;2023-03-11T15:11:42;6.70;;;2.92;;
2538;SDS011;1280;49.760;9.664;2023-03-11T15:14:19;8.20;;;2.83;;
2538;SDS011;1280;49.760;9.664;2023-03-11T15:17:09;7.75;;;2.88;;
2538;SDS011;1280;49.760;9.664;2023-03-11T15:19:59;6.82;;;2.72;;
2538;SDS011;1280;49.760;9.664;2023-03-11T15:22:41;6.75;;;2.40;;
2538;SDS011;1280;49.760;9.664;2023-03-11T15:25:22;5.03;;;2.42;;
2538;SDS011;1280;49.760;9.664;2023-03-11T15:27:52;9.77;;;3.30;;
2538;SDS011;1280;49.760;9.664;2023-03-11T15:30:31;4.55;;;2.17;;
2538;SDS011;1280;49.760;9.664;2023-03-11T15:33:01;5.22;;;2.22;;
2538;SDS011;1280;49.760;9.664;2023-03-11T15:35:46;5.47;;;2.25;;
2538;SDS011;1280;49.760;9.664;2023-03-11T15:38:24;6.35;;;2.78;;
2538;SDS011;1280;49.760;9.664;2023-03-11T15:40:57;6.93;;;2.40;;
2538;SDS011;1280;49.760;9.664;2023-03-11T15:43:28;8.80;;;2.90;;
2538;SDS011;1280;49.760;9.664;2023-03-11T15:46:07;5.60;;;2.80;;
2538;SDS011;1280;49.760;9.664;2023-03-11T15:48:38;5.55;;;2.67;;
2538;SDS011;1280;49.760;9.664;2023-03-11T15:51:15;4.78;;;2.40;;
2538;SDS011;1280;49.760;9.664;2023-03-11T15:53:49;7.22;;;2.28;;
2538;SDS011;1280;49.760;9.664;2023-03-11T15:56:33;8.60;;;3.13;;
2538;SDS011;1280;49.760;9.664;2023-03-11T15:59:35;12.82;;;4.88;;
2538;SDS011;1280;49.760;9.664;2023-03-11T16:02:01;13.48;;;4.10;;
2538;SDS011;1280;49.760;9.664;2023-03-11T16:04:30;5.25;;;2.45;;
2538;SDS011;1280;49.760;9.664;2023-03-11T16:07:03;9.50;;;4.53;;
2538;SDS011;1280;49.760;9.664;2023-03-11T16:09:35;12.13;;;3.75;;
2538;SDS011;1280;49.760;9.664;2023-03-11T16:12:13;5.53;;;3.13;;
2538;SDS011;1280;49.760;9.664;2023-03-11T16:14:46;7.25;;;3.28;;
2538;SDS011;1280;49.760;9.664;2023-03-11T16:17:54;7.05;;;2.75;;
2538;SDS011;1280;49.760;9.664;2023-03-11T16:20:18;6.50;;;2.60;;
2538;SDS011;1280;49.760;9.664;2023-03-11T16:22:46;6.43;;;2.50;;
2538;SDS011;1280;49.760;9.664;2023-03-11T16:25:21;5.07;;;2.60;;
2538;SDS011;1280;49.760;9.664;2023-03-11T16:27:57;5.53;;;2.20;;
2538;SDS011;1280;49.760;9.664;2023-03-11T16:30:26;6.50;;;2.30;;
2538;SDS011;1280;49.760;9.664;2023-03-11T16:33:01;8.30;;;2.60;;
2538;SDS011;1280;49.760;9.664;2023-03-11T16:35:42;6.82;;;2.50;;
2538;SDS011;1280;49.760;9.664;2023-03-11T16:38:23;7.55;;;2.65;;
2538;SDS011;1280;49.760;9.664;2023-03-11T16:40:54;8.70;;;2.70;;
2538;SDS011;1280;49.760;9.664;2023-03-11T16:43:29;6.53;;;3.20;;
2538;SDS011;1280;49.760;9.664;2023-03-11T16:46:00;7.50;;;2.90;;
2538;SDS011;1280;49.760;9.664;2023-03-11T16:48:45;4.85;;;2.42;;
2538;SDS011;1280;49.760;9.664;2023-03-11T16:51:26;6.85;;;2.47;;
2538;SDS011;1280;49.760;9.664;2023-03-11T16:53:55;8.13;;;2.80;;
2538;SDS011;1280;49.760;9.664;2023-03-11T16:56:27;11.35;;;4.30;;
2538;SDS011;1280;49.760;9.664;2023-03-11T16:59:12;24.02;;;10.32;;
2538;SDS011;1280;49.760;9.664;2023-03-11T17:01:48;9.45;;;5.15;;